createdAt,value
2023-10-22T00:00:01.220Z,20.88
2023-10-22T00:02:39.435Z,20.83
2023-10-22T00:05:07.512Z,20.75
2023-10-22T00:07:35.231Z,20.69
2023-10-22T00:10:02.539Z,20.69
2023-10-22T00:12:29.688Z,20.65
2023-10-22T00:14:56.795Z,20.63
2023-10-22T00:17:23.880Z,20.63
2023-10-22T00:19:51.102Z,20.59
2023-10-22T00:22:18.592Z,20.58
2023-10-22T00:24:45.655Z,20.60
2023-10-22T00:27:12.875Z,20.62
2023-10-22T00:29:40.192Z,20.57
2023-10-22T00:32:07.671Z,20.57
2023-10-22T00:34:36.146Z,20.55
2023-10-22T00:37:04.190Z,20.55
2023-10-22T00:39:31.312Z,20.51
2023-10-22T00:41:58.568Z,20.47
2023-10-22T00:44:25.685Z,20.42
2023-10-22T00:46:53.602Z,20.37
2023-10-22T00:49:21.011Z,20.34
2023-10-22T00:51:48.396Z,20.30
2023-10-22T00:54:16.985Z,20.28
2023-10-22T00:56:44.372Z,20.26
2023-10-22T00:59:13.232Z,20.29
2023-10-22T01:01:40.299Z,20.28
2023-10-22T01:04:08.483Z,20.28
2023-10-22T01:06:37.206Z,20.26
2023-10-22T01:09:05.468Z,20.25
2023-10-22T01:11:32.535Z,20.23
2023-10-22T01:13:59.637Z,20.20
2023-10-22T01:16:27.746Z,20.19
2023-10-22T01:18:54.770Z,20.15
2023-10-22T01:21:26.101Z,20.13
2023-10-22T01:23:53.267Z,20.05
2023-10-22T01:26:20.594Z,20.06
2023-10-22T01:28:47.690Z,20.02
2023-10-22T01:31:18.118Z,20.02
2023-10-22T01:33:45.455Z,20.01
2023-10-22T01:36:12.916Z,20.00
2023-10-22T01:38:40.165Z,19.98
2023-10-22T01:41:08.745Z,19.96
2023-10-22T01:43:36.205Z,19.96
2023-10-22T01:46:03.491Z,19.97
2023-10-22T01:48:30.668Z,19.96
2023-10-22T01:50:57.855Z,19.93
2023-10-22T01:53:25.160Z,19.91
2023-10-22T01:55:52.371Z,19.92
2023-10-22T01:58:19.463Z,19.89
2023-10-22T02:00:46.654Z,19.88
2023-10-22T02:03:13.789Z,19.86
2023-10-22T02:05:40.959Z,19.83
2023-10-22T02:08:08.114Z,19.81
2023-10-22T02:10:36.257Z,19.77
2023-10-22T02:13:03.418Z,19.75
2023-10-22T02:15:30.955Z,19.71
2023-10-22T02:17:58.044Z,19.67
2023-10-22T02:20:25.260Z,19.62
2023-10-22T02:22:52.500Z,19.58
2023-10-22T02:25:19.606Z,19.56
2023-10-22T02:27:46.671Z,19.55
2023-10-22T02:30:14.337Z,19.51
2023-10-22T02:32:41.564Z,19.52
2023-10-22T02:35:09.216Z,19.50
2023-10-22T02:37:36.261Z,19.47
2023-10-22T02:40:03.933Z,19.48
2023-10-22T02:42:31.401Z,19.48
2023-10-22T02:44:58.418Z,19.42
2023-10-22T02:47:25.644Z,19.39
2023-10-22T02:49:55.761Z,19.38
2023-10-22T02:52:22.899Z,19.34
2023-10-22T02:54:50.360Z,19.33
2023-10-22T02:57:17.807Z,19.33
2023-10-22T02:59:44.981Z,19.28
2023-10-22T03:02:12.136Z,19.28
2023-10-22T03:04:39.530Z,19.26
2023-10-22T03:07:06.866Z,19.25
2023-10-22T03:09:33.861Z,19.26
2023-10-22T03:12:02.196Z,19.24
2023-10-22T03:14:29.283Z,19.20
2023-10-22T03:16:58.353Z,19.18
2023-10-22T03:19:25.820Z,19.17
2023-10-22T03:21:53.141Z,19.10
2023-10-22T03:24:20.258Z,19.06
2023-10-22T03:26:47.953Z,19.06
2023-10-22T03:29:15.115Z,19.03
2023-10-22T03:31:42.385Z,19.02
2023-10-22T03:34:09.425Z,19.02
2023-10-22T03:36:36.788Z,19.01
2023-10-22T03:39:04.082Z,19.00
2023-10-22T03:41:31.317Z,18.96
2023-10-22T03:44:01.923Z,18.95
2023-10-22T03:46:29.076Z,18.92
2023-10-22T03:48:58.482Z,18.89
2023-10-22T03:51:26.002Z,18.91
2023-10-22T03:53:57.824Z,18.89
2023-10-22T03:56:24.910Z,18.88
2023-10-22T03:58:51.972Z,18.85
2023-10-22T04:01:19.184Z,18.79
2023-10-22T04:03:46.382Z,18.76
2023-10-22T04:06:13.542Z,18.72
2023-10-22T04:08:40.662Z,18.72
2023-10-22T04:11:08.716Z,18.67
2023-10-22T04:13:35.880Z,18.59
2023-10-22T04:16:02.976Z,18.54
2023-10-22T04:18:30.172Z,18.51
2023-10-22T04:20:57.510Z,18.49
2023-10-22T04:23:25.605Z,18.47
2023-10-22T04:25:52.681Z,18.43
2023-10-22T04:28:20.193Z,18.41
2023-10-22T04:30:50.036Z,18.42
2023-10-22T04:33:17.341Z,18.35
2023-10-22T04:35:44.464Z,18.38
2023-10-22T04:38:11.802Z,18.35
2023-10-22T04:40:38.818Z,18.32
2023-10-22T04:43:05.843Z,18.32
2023-10-22T04:45:32.978Z,18.27
2023-10-22T04:48:00.151Z,18.22
2023-10-22T04:50:27.592Z,18.21
2023-10-22T04:52:54.580Z,18.18
2023-10-22T04:55:21.994Z,18.19
2023-10-22T04:57:49.117Z,18.18
2023-10-22T05:00:16.427Z,18.16
2023-10-22T05:02:43.733Z,18.09
2023-10-22T05:05:10.988Z,18.04
2023-10-22T05:07:38.093Z,17.98
2023-10-22T05:10:06.124Z,17.93
2023-10-22T05:12:33.459Z,17.90
2023-10-22T05:15:00.591Z,17.88
2023-10-22T05:17:27.800Z,17.85
2023-10-22T05:19:54.871Z,17.86
2023-10-22T05:22:22.147Z,17.83
2023-10-22T05:24:50.137Z,17.82
2023-10-22T05:27:18.941Z,17.80
2023-10-22T05:29:49.931Z,17.77
2023-10-22T05:32:17.176Z,17.75
2023-10-22T05:34:44.734Z,17.74
2023-10-22T05:37:11.999Z,17.73
2023-10-22T05:39:39.099Z,17.69
2023-10-22T05:42:07.394Z,17.69
2023-10-22T05:44:38.519Z,17.68
2023-10-22T05:47:06.188Z,17.67
2023-10-22T05:49:33.362Z,17.67
2023-10-22T05:52:00.408Z,17.68
2023-10-22T05:54:27.556Z,17.66
2023-10-22T05:56:54.588Z,17.66
2023-10-22T05:59:21.751Z,17.64
2023-10-22T06:01:49.152Z,17.64
2023-10-22T06:04:16.300Z,17.63
2023-10-22T06:06:43.414Z,17.61
2023-10-22T06:09:13.602Z,17.59
2023-10-22T06:11:41.151Z,17.55
2023-10-22T06:14:10.280Z,17.55
2023-10-22T06:16:38.978Z,17.53
2023-10-22T06:19:06.096Z,17.51
2023-10-22T06:21:33.125Z,17.51
2023-10-22T06:24:00.718Z,17.50
2023-10-22T06:26:27.821Z,17.50
2023-10-22T06:28:54.825Z,17.45
2023-10-22T06:31:22.067Z,17.43
2023-10-22T06:33:50.168Z,17.43
2023-10-22T06:36:22.383Z,17.46
2023-10-22T06:38:50.975Z,17.50
2023-10-22T06:41:19.605Z,17.52
2023-10-22T06:43:46.957Z,17.55
2023-10-22T06:46:14.860Z,17.56
2023-10-22T06:48:44.019Z,17.58
2023-10-22T06:51:19.608Z,17.60
2023-10-22T06:53:48.734Z,17.58
2023-10-22T06:56:16.965Z,17.55
2023-10-22T06:58:46.399Z,17.53
2023-10-22T07:01:15.712Z,17.57
2023-10-22T07:03:47.657Z,17.60
2023-10-22T07:06:15.531Z,17.63
2023-10-22T07:08:44.790Z,17.65
2023-10-22T07:11:12.552Z,17.67
2023-10-22T07:13:39.642Z,17.68
2023-10-22T07:16:08.263Z,17.70
2023-10-22T07:18:35.490Z,17.69
2023-10-22T07:21:03.026Z,17.71
2023-10-22T07:23:33.348Z,17.73
2023-10-22T07:26:00.914Z,17.74
2023-10-22T07:28:28.335Z,17.78
2023-10-22T07:30:55.392Z,17.81
2023-10-22T07:33:22.695Z,17.85
2023-10-22T07:35:57.606Z,17.88
2023-10-22T07:38:34.093Z,17.89
2023-10-22T07:41:02.174Z,17.93
2023-10-22T07:43:30.533Z,17.98
2023-10-22T07:46:05.979Z,18.00
2023-10-22T07:48:36.326Z,18.03
2023-10-22T07:51:17.245Z,18.04
2023-10-22T07:53:46.015Z,18.03
2023-10-22T07:56:14.022Z,18.08
2023-10-22T07:58:41.421Z,18.04
2023-10-22T08:01:09.445Z,18.06
2023-10-22T08:03:37.344Z,18.08
2023-10-22T08:06:05.918Z,18.11
2023-10-22T08:08:33.214Z,18.10
2023-10-22T08:11:02.350Z,18.14
2023-10-22T08:13:29.428Z,18.17
2023-10-22T08:15:57.848Z,18.20
2023-10-22T08:18:25.697Z,18.20
2023-10-22T08:20:53.196Z,18.22
2023-10-22T08:23:20.373Z,18.24
2023-10-22T08:25:52.787Z,18.25
2023-10-22T08:28:21.213Z,18.29
2023-10-22T08:30:49.060Z,18.38
2023-10-22T08:33:16.237Z,18.49
2023-10-22T08:35:43.736Z,18.63
2023-10-22T08:38:10.851Z,18.79
2023-10-22T08:40:39.695Z,18.96
2023-10-22T08:43:08.103Z,19.13
2023-10-22T08:45:35.245Z,19.22
2023-10-22T08:48:07.405Z,19.28
2023-10-22T08:50:35.036Z,19.33
2023-10-22T08:53:02.175Z,19.36
2023-10-22T08:55:30.596Z,19.43
2023-10-22T08:58:00.804Z,19.51
2023-10-22T09:00:30.796Z,19.65
2023-10-22T09:02:59.572Z,19.77
2023-10-22T09:05:26.903Z,19.89
2023-10-22T09:07:56.089Z,20.01
2023-10-22T09:10:29.815Z,20.11
2023-10-22T09:13:17.813Z,20.21
2023-10-22T09:15:46.743Z,20.28
2023-10-22T09:18:15.214Z,20.31
2023-10-22T09:20:43.615Z,20.41
2023-10-22T09:23:18.795Z,20.52
2023-10-22T09:26:13.220Z,20.60
2023-10-22T09:28:40.227Z,20.65
2023-10-22T09:31:08.238Z,20.67
2023-10-22T09:33:37.551Z,20.69
2023-10-22T09:36:15.874Z,20.71
2023-10-22T09:38:47.638Z,20.68
2023-10-22T09:41:20.496Z,20.68
2023-10-22T09:43:47.626Z,20.68
2023-10-22T09:46:15.427Z,20.67
2023-10-22T09:48:44.673Z,20.66
2023-10-22T09:51:14.687Z,20.63
2023-10-22T09:53:50.549Z,20.63
2023-10-22T09:56:20.959Z,20.60
2023-10-22T09:58:50.069Z,20.62
2023-10-22T10:01:17.329Z,20.64
2023-10-22T10:03:45.213Z,20.65
2023-10-22T10:06:12.889Z,20.67
2023-10-22T10:08:40.965Z,20.70
2023-10-22T10:11:12.761Z,20.74
2023-10-22T10:13:41.413Z,20.73
2023-10-22T10:16:08.864Z,20.75
2023-10-22T10:19:04.500Z,20.83
2023-10-22T10:21:39.486Z,21.00
2023-10-22T10:24:15.629Z,21.25
2023-10-22T10:26:43.017Z,21.48
2023-10-22T10:29:16.399Z,21.71
2023-10-22T10:31:49.390Z,21.88
2023-10-22T10:34:26.129Z,22.04
2023-10-22T10:36:56.709Z,22.16
2023-10-22T10:39:44.658Z,22.36
2023-10-22T10:42:13.280Z,22.46
2023-10-22T10:44:59.129Z,22.58
2023-10-22T10:47:26.633Z,22.65
2023-10-22T10:50:04.836Z,22.71
2023-10-22T10:52:44.329Z,22.72
2023-10-22T10:55:16.311Z,22.69
2023-10-22T10:57:48.682Z,22.72
2023-10-22T11:00:22.861Z,22.73
2023-10-22T11:02:52.680Z,22.74
2023-10-22T11:05:39.370Z,22.83
2023-10-22T11:08:19.885Z,22.94
2023-10-22T11:10:47.540Z,23.00
2023-10-22T11:13:15.101Z,23.12
2023-10-22T11:15:42.718Z,23.24
2023-10-22T11:18:13.263Z,23.34
2023-10-22T11:20:44.951Z,23.41
2023-10-22T11:23:19.810Z,23.47
2023-10-22T11:25:47.742Z,23.50
2023-10-22T11:28:15.924Z,23.57
2023-10-22T11:30:43.884Z,23.63
2023-10-22T11:33:27.894Z,23.66
2023-10-22T11:35:58.575Z,23.65
2023-10-22T11:38:26.132Z,23.67
2023-10-22T11:40:57.143Z,23.65
2023-10-22T11:43:28.068Z,23.56
2023-10-22T11:45:58.752Z,23.47
2023-10-22T11:48:27.499Z,23.40
2023-10-22T11:51:02.587Z,23.41
2023-10-22T11:53:44.223Z,23.46
2023-10-22T11:56:11.397Z,23.44
2023-10-22T11:58:45.670Z,23.42
2023-10-22T12:01:13.463Z,23.38
2023-10-22T12:03:40.627Z,23.22
2023-10-22T12:06:08.044Z,23.23
2023-10-22T12:08:35.016Z,23.16
2023-10-22T12:11:02.035Z,23.19
2023-10-22T12:13:29.059Z,23.18
2023-10-22T12:15:56.137Z,23.17
2023-10-22T12:18:25.197Z,23.20
2023-10-22T12:20:52.546Z,23.25
2023-10-22T12:23:21.225Z,23.21
2023-10-22T12:25:49.995Z,23.18
2023-10-22T12:28:17.013Z,23.14
2023-10-22T12:30:44.190Z,23.07
2023-10-22T12:33:11.418Z,23.06
2023-10-22T12:35:41.511Z,23.07
2023-10-22T12:38:08.732Z,23.10
2023-10-22T12:40:38.869Z,23.14
2023-10-22T12:43:06.549Z,23.11
2023-10-22T12:45:34.355Z,23.13
2023-10-22T12:48:01.549Z,23.06
2023-10-22T12:50:28.625Z,22.99
2023-10-22T12:52:55.624Z,22.89
2023-10-22T12:55:25.395Z,22.91
2023-10-22T12:57:52.873Z,22.85
2023-10-22T13:00:20.066Z,22.69
2023-10-22T13:02:47.526Z,22.63
2023-10-22T13:05:14.656Z,22.70
2023-10-22T13:07:41.751Z,22.77
2023-10-22T13:10:09.104Z,22.82
2023-10-22T13:12:37.356Z,22.89
2023-10-22T13:15:06.081Z,22.88
2023-10-22T13:17:36.955Z,22.83
2023-10-22T13:20:10.165Z,22.80
2023-10-22T13:22:37.625Z,22.82
2023-10-22T13:25:05.090Z,22.83
2023-10-22T13:27:34.289Z,22.84
2023-10-22T13:30:01.734Z,22.83
2023-10-22T13:32:28.949Z,22.81
2023-10-22T13:34:55.995Z,22.82
2023-10-22T13:37:23.067Z,22.83
2023-10-22T13:39:50.238Z,22.83
2023-10-22T13:42:17.379Z,22.85
2023-10-22T13:44:47.961Z,22.83
2023-10-22T13:47:16.869Z,22.85
2023-10-22T13:49:45.118Z,22.89
2023-10-22T13:52:12.271Z,22.92
2023-10-22T13:54:39.766Z,22.93
2023-10-22T13:57:07.581Z,22.88
2023-10-22T13:59:35.943Z,22.89
2023-10-22T14:02:02.991Z,22.86
2023-10-22T14:04:30.119Z,22.86
2023-10-22T14:07:00.168Z,22.85
2023-10-22T14:09:27.856Z,22.84
2023-10-22T14:11:55.400Z,22.84
2023-10-22T14:14:22.465Z,22.80
2023-10-22T14:16:49.831Z,22.76
2023-10-22T14:19:16.848Z,22.75
2023-10-22T14:21:44.183Z,22.78
2023-10-22T14:24:11.382Z,22.82
2023-10-22T14:26:38.498Z,22.85
2023-10-22T14:29:05.603Z,22.78
2023-10-22T14:31:32.781Z,22.77
2023-10-22T14:34:00.382Z,22.76
2023-10-22T14:36:27.541Z,22.75
2023-10-22T14:38:57.018Z,22.76
2023-10-22T14:41:25.926Z,22.78
2023-10-22T14:43:52.971Z,22.78
2023-10-22T14:46:20.488Z,22.81
2023-10-22T14:48:47.584Z,22.79
2023-10-22T14:51:14.828Z,22.74
2023-10-22T14:53:42.026Z,22.69
2023-10-22T14:56:09.338Z,22.64
2023-10-22T14:58:36.551Z,22.60
2023-10-22T15:01:12.669Z,22.55
2023-10-22T15:03:40.045Z,22.56
2023-10-22T15:06:07.487Z,22.59
2023-10-22T15:08:35.531Z,22.62
2023-10-22T15:11:04.811Z,22.61
2023-10-22T15:13:31.966Z,22.63
2023-10-22T15:15:59.022Z,22.63
2023-10-22T15:18:26.342Z,22.64
2023-10-22T15:20:53.819Z,22.66
2023-10-22T15:23:20.981Z,22.69
2023-10-22T15:25:50.417Z,22.73
2023-10-22T15:28:18.045Z,22.76
2023-10-22T15:30:46.340Z,22.74
2023-10-22T15:33:14.303Z,22.72
2023-10-22T15:35:44.523Z,22.74
2023-10-22T15:38:14.584Z,22.72
2023-10-22T15:40:41.675Z,22.75
2023-10-22T15:43:09.905Z,22.76
2023-10-22T15:45:46.345Z,22.81
2023-10-22T15:48:13.806Z,22.82
2023-10-22T15:50:45.656Z,22.82
2023-10-22T15:53:13.172Z,22.80
2023-10-22T15:55:40.376Z,22.76
2023-10-22T15:58:07.444Z,22.69
2023-10-22T16:00:36.716Z,22.61
2023-10-22T16:03:05.318Z,22.56
2023-10-22T16:05:32.548Z,22.53
2023-10-22T16:07:59.567Z,22.49
2023-10-22T16:10:27.250Z,22.44
2023-10-22T16:12:54.328Z,22.41
2023-10-22T16:15:22.253Z,22.38
2023-10-22T16:17:51.242Z,22.38
2023-10-22T16:20:18.480Z,22.39
2023-10-22T16:22:46.039Z,22.37
2023-10-22T16:25:14.234Z,22.33
2023-10-22T16:27:41.612Z,22.25
2023-10-22T16:30:09.776Z,22.18
2023-10-22T16:32:36.858Z,22.13
2023-10-22T16:35:03.979Z,22.13
2023-10-22T16:37:31.007Z,22.12
2023-10-22T16:39:58.551Z,22.13
2023-10-22T16:42:29.088Z,22.11
2023-10-22T16:44:56.410Z,22.12
2023-10-22T16:47:23.615Z,22.11
2023-10-22T16:49:50.874Z,22.12
2023-10-22T16:52:18.000Z,22.12
2023-10-22T16:54:45.143Z,22.12
2023-10-22T16:57:14.118Z,22.05
2023-10-22T16:59:42.468Z,21.99
2023-10-22T17:02:10.369Z,21.98
2023-10-22T17:04:37.417Z,21.95
2023-10-22T17:07:04.531Z,21.98
2023-10-22T17:09:32.506Z,21.94
2023-10-22T17:11:59.625Z,21.96
2023-10-22T17:14:37.663Z,21.97
2023-10-22T17:17:09.045Z,21.91
2023-10-22T17:19:36.483Z,21.89
2023-10-22T17:22:04.285Z,21.90
2023-10-22T17:24:33.131Z,21.84
2023-10-22T17:27:00.717Z,21.86
2023-10-22T17:29:27.762Z,21.84
2023-10-22T17:31:54.829Z,21.80
2023-10-22T17:34:21.884Z,21.83
2023-10-22T17:36:49.655Z,21.76
2023-10-22T17:39:17.218Z,21.73
2023-10-22T17:41:44.412Z,21.75
2023-10-22T17:44:11.955Z,21.72
2023-10-22T17:46:39.125Z,21.70
2023-10-22T17:49:06.233Z,21.73
2023-10-22T17:51:34.742Z,21.79
2023-10-22T17:54:01.893Z,21.78
2023-10-22T17:56:30.080Z,21.76
2023-10-22T17:58:57.079Z,21.77
2023-10-22T18:01:24.155Z,21.80
2023-10-22T18:03:51.449Z,21.81
2023-10-22T18:06:18.608Z,21.86
2023-10-22T18:08:46.559Z,21.86
2023-10-22T18:11:23.725Z,21.85
2023-10-22T18:13:50.798Z,21.89
2023-10-22T18:16:21.315Z,21.90
2023-10-22T18:18:50.827Z,21.89
2023-10-22T18:21:19.754Z,21.92
2023-10-22T18:23:47.049Z,21.93
2023-10-22T18:26:14.273Z,21.94
2023-10-22T18:28:41.403Z,21.94
2023-10-22T18:31:09.555Z,21.93
2023-10-22T18:33:37.954Z,21.97
2023-10-22T18:36:06.337Z,21.98
2023-10-22T18:38:36.425Z,22.00
2023-10-22T18:41:13.605Z,22.03
2023-10-22T18:43:47.075Z,22.05
2023-10-22T18:46:15.345Z,22.06
2023-10-22T18:48:47.359Z,22.09
2023-10-22T18:51:20.062Z,22.06
2023-10-22T18:53:47.980Z,21.99
2023-10-22T18:56:16.609Z,22.00
2023-10-22T18:58:45.132Z,21.97
2023-10-22T19:01:30.507Z,21.97
2023-10-22T19:04:00.669Z,21.91
2023-10-22T19:06:30.742Z,21.92
2023-10-22T19:09:00.642Z,21.94
2023-10-22T19:11:30.221Z,21.95
2023-10-22T19:14:01.348Z,21.96
2023-10-22T19:16:31.417Z,21.98
2023-10-22T19:19:00.049Z,21.99
2023-10-22T19:21:28.241Z,21.99
2023-10-22T19:23:58.190Z,22.00
2023-10-22T19:26:27.376Z,22.00
2023-10-22T19:28:55.400Z,21.99
2023-10-22T19:31:23.211Z,22.02
2023-10-22T19:33:51.048Z,22.04
2023-10-22T19:36:20.253Z,22.02
2023-10-22T19:38:50.777Z,22.00
2023-10-22T19:41:25.218Z,21.98
2023-10-22T19:44:07.639Z,21.98
2023-10-22T19:46:35.696Z,21.96
2023-10-22T19:49:05.405Z,21.93
2023-10-22T19:51:33.623Z,21.96
2023-10-22T19:54:01.279Z,21.94
2023-10-22T19:56:28.919Z,21.96
2023-10-22T19:58:57.790Z,21.98
2023-10-22T20:01:27.812Z,22.01
2023-10-22T20:03:55.880Z,21.97
2023-10-22T20:06:24.693Z,22.00
2023-10-22T20:09:03.779Z,22.03
2023-10-22T20:11:31.334Z,22.04
2023-10-22T20:13:59.098Z,22.00
2023-10-22T20:16:29.331Z,21.99
2023-10-22T20:25:50.639Z,21.88
2023-10-22T20:28:20.945Z,21.87
2023-10-22T20:35:12.761Z,21.78
2023-10-22T20:37:41.370Z,21.77
2023-10-22T20:40:21.531Z,21.75
2023-10-22T20:52:27.400Z,21.74
2023-10-22T20:54:54.948Z,21.78
2023-10-22T20:57:22.447Z,21.82
2023-10-22T20:59:50.521Z,21.84
2023-10-22T21:02:17.567Z,21.86
2023-10-22T21:04:44.801Z,21.86
2023-10-22T21:07:15.571Z,21.88
2023-10-22T21:09:44.129Z,21.82
2023-10-22T21:20:07.207Z,21.74
2023-10-22T21:22:34.352Z,21.74
2023-10-22T21:25:01.418Z,21.72
2023-10-22T21:27:28.493Z,21.73
2023-10-22T21:29:55.693Z,21.73
2023-10-22T21:32:28.859Z,21.72
2023-10-22T21:34:56.240Z,21.71
2023-10-22T21:37:24.579Z,21.72
2023-10-22T21:39:51.651Z,21.72
2023-10-22T21:42:18.687Z,21.77
2023-10-22T21:44:48.987Z,21.82
2023-10-22T21:47:29.490Z,21.86
2023-10-22T21:49:59.916Z,21.83
2023-10-22T21:52:27.054Z,21.88
2023-10-22T21:54:54.617Z,21.87
2023-10-22T21:57:24.288Z,21.82
2023-10-22T21:59:51.654Z,21.82
2023-10-22T22:02:21.935Z,21.83
2023-10-22T22:04:49.159Z,21.82
2023-10-22T22:07:16.195Z,21.84
2023-10-22T22:09:43.381Z,21.80
2023-10-22T22:12:10.501Z,21.79
2023-10-22T22:14:37.760Z,21.76
2023-10-22T22:17:05.100Z,21.79
2023-10-22T22:19:32.630Z,21.79
2023-10-22T22:21:59.660Z,21.81
2023-10-22T22:24:26.678Z,21.83
2023-10-22T22:26:53.819Z,21.82
2023-10-22T22:29:21.089Z,21.78
2023-10-22T22:31:48.151Z,21.73
2023-10-22T22:34:15.203Z,21.72
2023-10-22T22:36:42.305Z,21.71
2023-10-22T22:39:09.370Z,21.71
2023-10-22T22:41:36.382Z,21.73
2023-10-22T22:44:03.578Z,21.70
2023-10-22T22:46:30.594Z,21.70
2023-10-22T22:48:58.818Z,21.72
2023-10-22T22:51:26.421Z,21.75
2023-10-22T22:53:53.557Z,21.74
2023-10-22T22:56:20.673Z,21.72
2023-10-22T22:58:47.783Z,21.69
2023-10-22T23:01:22.328Z,21.61
2023-10-22T23:03:49.564Z,21.62
2023-10-22T23:06:16.641Z,21.58
2023-10-22T23:08:43.685Z,21.63
2023-10-22T23:11:13.264Z,21.63
2023-10-22T23:13:40.593Z,21.65
2023-10-22T23:16:07.666Z,21.67
2023-10-22T23:18:34.915Z,21.62
2023-10-22T23:21:01.964Z,21.63
2023-10-22T23:23:29.013Z,21.64
2023-10-22T23:25:56.106Z,21.60
2023-10-22T23:28:23.198Z,21.66
2023-10-22T23:30:51.996Z,21.67
2023-10-22T23:33:22.296Z,21.62
2023-10-22T23:35:49.609Z,21.63
2023-10-22T23:38:16.667Z,21.67
2023-10-22T23:40:43.807Z,21.64
2023-10-22T23:43:10.774Z,21.65
2023-10-22T23:45:37.865Z,21.62
2023-10-22T23:48:05.760Z,21.62
2023-10-22T23:50:32.852Z,21.59
2023-10-22T23:53:00.007Z,21.61
2023-10-22T23:55:27.061Z,21.61
2023-10-22T23:57:54.089Z,21.62
